sensor_id;sensor_type;location;lat;lon;timestamp;temperature;humidity
17619;DHT22;8928;51.678;6.074;2023-05-23T00:02:05;15.20;99.90
17619;DHT22;8928;51.678;6.074;2023-05-23T00:04:53;15.20;99.90
17619;DHT22;8928;51.678;6.074;2023-05-23T00:07:43;15.20;99.90
17619;DHT22;8928;51.678;6.074;2023-05-23T00:10:30;15.20;99.90
17619;DHT22;8928;51.678;6.074;2023-05-23T00:13:18;15.20;99.90
17619;DHT22;8928;51.678;6.074;2023-05-23T00:16:05;15.20;99.90
17619;DHT22;8928;51.678;6.074;2023-05-23T00:18:54;15.20;99.90
17619;DHT22;8928;51.678;6.074;2023-05-23T00:21:46;15.20;99.90
17619;DHT22;8928;51.678;6.074;2023-05-23T00:24:34;15.20;99.90
17619;DHT22;8928;51.678;6.074;2023-05-23T00:27:21;15.20;99.90
17619;DHT22;8928;51.678;6.074;2023-05-23T00:30:10;15.30;99.90
17619;DHT22;8928;51.678;6.074;2023-05-23T00:32:57;15.30;99.90
17619;DHT22;8928;51.678;6.074;2023-05-23T00:35:45;15.30;99.90
17619;DHT22;8928;51.678;6.074;2023-05-23T00:38:32;15.30;99.90
17619;DHT22;8928;51.678;6.074;2023-05-23T00:41:19;15.30;99.90
17619;DHT22;8928;51.678;6.074;2023-05-23T00:44:06;15.30;99.90
17619;DHT22;8928;51.678;6.074;2023-05-23T00:46:56;15.30;99.90
17619;DHT22;8928;51.678;6.074;2023-05-23T00:49:43;15.20;99.90
17619;DHT22;8928;51.678;6.074;2023-05-23T00:52:31;15.20;99.90
17619;DHT22;8928;51.678;6.074;2023-05-23T00:55:18;15.20;99.90
17619;DHT22;8928;51.678;6.074;2023-05-23T00:58:05;15.20;99.90
17619;DHT22;8928;51.678;6.074;2023-05-23T01:00:52;15.20;99.90
17619;DHT22;8928;51.678;6.074;2023-05-23T01:03:41;15.10;99.90
17619;DHT22;8928;51.678;6.074;2023-05-23T01:06:30;15.10;99.90
17619;DHT22;8928;51.678;6.074;2023-05-23T01:09:18;15.10;99.90
17619;DHT22;8928;51.678;6.074;2023-05-23T01:12:13;15.10;99.90
17619;DHT22;8928;51.678;6.074;2023-05-23T01:15:05;15.00;99.90
17619;DHT22;8928;51.678;6.074;2023-05-23T01:17:57;15.10;99.90
17619;DHT22;8928;51.678;6.074;2023-05-23T01:20:51;15.10;99.90
17619;DHT22;8928;51.678;6.074;2023-05-23T01:27:00;15.00;99.90
17619;DHT22;8928;51.678;6.074;2023-05-23T01:29:56;15.00;99.90
17619;DHT22;8928;51.678;6.074;2023-05-23T01:32:44;14.90;99.90
17619;DHT22;8928;51.678;6.074;2023-05-23T01:35:32;14.90;99.90
17619;DHT22;8928;51.678;6.074;2023-05-23T01:38:21;14.90;99.90
17619;DHT22;8928;51.678;6.074;2023-05-23T01:41:08;14.80;99.90
17619;DHT22;8928;51.678;6.074;2023-05-23T01:43:55;14.80;99.90
17619;DHT22;8928;51.678;6.074;2023-05-23T01:46:43;14.70;99.90
17619;DHT22;8928;51.678;6.074;2023-05-23T01:49:32;14.70;99.90
17619;DHT22;8928;51.678;6.074;2023-05-23T01:52:21;14.70;99.90
17619;DHT22;8928;51.678;6.074;2023-05-23T01:55:09;14.70;99.90
17619;DHT22;8928;51.678;6.074;2023-05-23T01:57:57;14.70;99.90
17619;DHT22;8928;51.678;6.074;2023-05-23T02:00:45;14.60;99.90
17619;DHT22;8928;51.678;6.074;2023-05-23T02:03:33;14.60;99.90
17619;DHT22;8928;51.678;6.074;2023-05-23T02:06:21;14.60;99.90
17619;DHT22;8928;51.678;6.074;2023-05-23T02:09:08;14.50;99.90
17619;DHT22;8928;51.678;6.074;2023-05-23T02:11:55;14.50;99.90
17619;DHT22;8928;51.678;6.074;2023-05-23T02:14:42;14.50;99.90
17619;DHT22;8928;51.678;6.074;2023-05-23T02:17:29;14.40;99.90
17619;DHT22;8928;51.678;6.074;2023-05-23T02:20:18;14.40;99.90
17619;DHT22;8928;51.678;6.074;2023-05-23T02:23:05;14.40;99.90
17619;DHT22;8928;51.678;6.074;2023-05-23T02:25:52;14.30;99.90
17619;DHT22;8928;51.678;6.074;2023-05-23T02:28:39;14.30;99.90
17619;DHT22;8928;51.678;6.074;2023-05-23T02:31:26;14.30;99.90
17619;DHT22;8928;51.678;6.074;2023-05-23T02:34:13;14.30;99.90
17619;DHT22;8928;51.678;6.074;2023-05-23T02:37:02;14.30;99.90
17619;DHT22;8928;51.678;6.074;2023-05-23T02:39:49;14.20;99.90
17619;DHT22;8928;51.678;6.074;2023-05-23T02:42:36;14.20;99.90
17619;DHT22;8928;51.678;6.074;2023-05-23T02:45:23;14.20;99.90
17619;DHT22;8928;51.678;6.074;2023-05-23T02:48:10;14.20;99.90
17619;DHT22;8928;51.678;6.074;2023-05-23T02:50:57;14.10;99.90
17619;DHT22;8928;51.678;6.074;2023-05-23T02:53:46;14.10;99.90
17619;DHT22;8928;51.678;6.074;2023-05-23T02:56:33;14.10;99.90
17619;DHT22;8928;51.678;6.074;2023-05-23T02:59:20;14.10;99.90
17619;DHT22;8928;51.678;6.074;2023-05-23T03:02:07;14.10;99.90
17619;DHT22;8928;51.678;6.074;2023-05-23T03:04:54;14.10;99.90
17619;DHT22;8928;51.678;6.074;2023-05-23T03:07:42;14.10;99.90
17619;DHT22;8928;51.678;6.074;2023-05-23T03:10:30;14.10;99.90
17619;DHT22;8928;51.678;6.074;2023-05-23T03:13:17;14.10;99.90
17619;DHT22;8928;51.678;6.074;2023-05-23T03:16:05;14.10;99.90
17619;DHT22;8928;51.678;6.074;2023-05-23T03:18:52;14.10;99.90
17619;DHT22;8928;51.678;6.074;2023-05-23T03:21:39;14.10;99.90
17619;DHT22;8928;51.678;6.074;2023-05-23T03:24:26;14.10;99.90
17619;DHT22;8928;51.678;6.074;2023-05-23T03:27:15;14.10;99.90
17619;DHT22;8928;51.678;6.074;2023-05-23T03:30:02;14.20;99.90
17619;DHT22;8928;51.678;6.074;2023-05-23T03:32:49;14.20;99.90
17619;DHT22;8928;51.678;6.074;2023-05-23T03:35:36;14.20;99.90
17619;DHT22;8928;51.678;6.074;2023-05-23T03:38:23;14.20;99.90
17619;DHT22;8928;51.678;6.074;2023-05-23T03:41:10;14.20;99.90
17619;DHT22;8928;51.678;6.074;2023-05-23T03:43:59;14.20;99.90
17619;DHT22;8928;51.678;6.074;2023-05-23T03:46:46;14.10;99.90
17619;DHT22;8928;51.678;6.074;2023-05-23T03:49:33;14.20;99.90
17619;DHT22;8928;51.678;6.074;2023-05-23T03:52:20;14.10;99.90
17619;DHT22;8928;51.678;6.074;2023-05-23T03:55:08;14.10;99.90
17619;DHT22;8928;51.678;6.074;2023-05-23T03:57:56;14.10;99.90
17619;DHT22;8928;51.678;6.074;2023-05-23T04:00:44;14.20;99.90
17619;DHT22;8928;51.678;6.074;2023-05-23T04:03:31;14.10;99.90
17619;DHT22;8928;51.678;6.074;2023-05-23T04:06:18;14.10;99.90
17619;DHT22;8928;51.678;6.074;2023-05-23T04:09:07;14.10;99.90
17619;DHT22;8928;51.678;6.074;2023-05-23T04:11:55;14.10;99.90
17619;DHT22;8928;51.678;6.074;2023-05-23T04:14:42;14.10;99.90
17619;DHT22;8928;51.678;6.074;2023-05-23T04:17:30;14.10;99.90
17619;DHT22;8928;51.678;6.074;2023-05-23T04:20:17;14.10;99.90
17619;DHT22;8928;51.678;6.074;2023-05-23T04:23:04;14.10;99.90
17619;DHT22;8928;51.678;6.074;2023-05-23T04:25:51;14.10;99.90
17619;DHT22;8928;51.678;6.074;2023-05-23T04:28:39;14.10;99.90
17619;DHT22;8928;51.678;6.074;2023-05-23T04:31:28;14.10;99.90
17619;DHT22;8928;51.678;6.074;2023-05-23T04:34:17;14.10;99.90
17619;DHT22;8928;51.678;6.074;2023-05-23T04:37:07;14.10;99.90
17619;DHT22;8928;51.678;6.074;2023-05-23T04:39:54;14.20;99.90
17619;DHT22;8928;51.678;6.074;2023-05-23T04:42:41;14.20;99.90
17619;DHT22;8928;51.678;6.074;2023-05-23T04:45:29;14.20;99.90
17619;DHT22;8928;51.678;6.074;2023-05-23T04:48:16;14.30;99.90
17619;DHT22;8928;51.678;6.074;2023-05-23T04:51:07;14.30;99.90
17619;DHT22;8928;51.678;6.074;2023-05-23T04:53:56;14.30;99.90
17619;DHT22;8928;51.678;6.074;2023-05-23T04:56:43;14.40;99.90
17619;DHT22;8928;51.678;6.074;2023-05-23T04:59:30;14.40;99.90
17619;DHT22;8928;51.678;6.074;2023-05-23T05:02:18;14.40;99.90
17619;DHT22;8928;51.678;6.074;2023-05-23T05:05:05;14.40;99.90
17619;DHT22;8928;51.678;6.074;2023-05-23T05:07:54;14.50;99.90
17619;DHT22;8928;51.678;6.074;2023-05-23T05:10:41;14.50;99.90
17619;DHT22;8928;51.678;6.074;2023-05-23T05:13:28;14.60;99.90
17619;DHT22;8928;51.678;6.074;2023-05-23T05:16:15;14.60;99.90
17619;DHT22;8928;51.678;6.074;2023-05-23T05:19:03;14.60;99.90
17619;DHT22;8928;51.678;6.074;2023-05-23T05:21:50;14.60;99.90
17619;DHT22;8928;51.678;6.074;2023-05-23T05:24:38;14.60;99.90
17619;DHT22;8928;51.678;6.074;2023-05-23T05:27:26;14.60;99.90
17619;DHT22;8928;51.678;6.074;2023-05-23T05:30:13;14.60;99.90
17619;DHT22;8928;51.678;6.074;2023-05-23T05:33:01;14.50;99.90
17619;DHT22;8928;51.678;6.074;2023-05-23T05:35:49;14.50;99.90
17619;DHT22;8928;51.678;6.074;2023-05-23T05:38:37;14.50;99.90
17619;DHT22;8928;51.678;6.074;2023-05-23T05:41:25;14.60;99.90
17619;DHT22;8928;51.678;6.074;2023-05-23T05:44:12;14.60;99.90
17619;DHT22;8928;51.678;6.074;2023-05-23T05:46:59;14.50;99.90
17619;DHT22;8928;51.678;6.074;2023-05-23T05:49:46;14.50;99.90
17619;DHT22;8928;51.678;6.074;2023-05-23T05:52:33;14.40;99.90
17619;DHT22;8928;51.678;6.074;2023-05-23T05:55:23;14.40;99.90
17619;DHT22;8928;51.678;6.074;2023-05-23T05:58:11;14.40;99.90
17619;DHT22;8928;51.678;6.074;2023-05-23T06:00:58;14.40;99.90
17619;DHT22;8928;51.678;6.074;2023-05-23T06:03:45;14.30;99.90
17619;DHT22;8928;51.678;6.074;2023-05-23T06:06:33;14.20;99.90
17619;DHT22;8928;51.678;6.074;2023-05-23T06:09:20;14.10;99.90
17619;DHT22;8928;51.678;6.074;2023-05-23T06:12:07;14.10;99.90
17619;DHT22;8928;51.678;6.074;2023-05-23T06:14:55;14.10;99.90
17619;DHT22;8928;51.678;6.074;2023-05-23T06:17:43;14.00;99.90
17619;DHT22;8928;51.678;6.074;2023-05-23T06:20:30;13.90;99.90
17619;DHT22;8928;51.678;6.074;2023-05-23T06:23:17;13.80;99.90
17619;DHT22;8928;51.678;6.074;2023-05-23T06:26:04;13.80;99.90
17619;DHT22;8928;51.678;6.074;2023-05-23T06:28:55;13.80;99.90
17619;DHT22;8928;51.678;6.074;2023-05-23T06:31:43;13.70;99.90
17619;DHT22;8928;51.678;6.074;2023-05-23T06:34:30;13.70;99.90
17619;DHT22;8928;51.678;6.074;2023-05-23T06:37:17;13.70;99.90
17619;DHT22;8928;51.678;6.074;2023-05-23T06:40:05;13.60;99.90
17619;DHT22;8928;51.678;6.074;2023-05-23T06:42:52;13.60;99.90
17619;DHT22;8928;51.678;6.074;2023-05-23T06:45:39;13.50;99.90
17619;DHT22;8928;51.678;6.074;2023-05-23T06:48:28;13.50;99.90
17619;DHT22;8928;51.678;6.074;2023-05-23T06:51:15;13.50;99.90
17619;DHT22;8928;51.678;6.074;2023-05-23T06:54:02;13.60;99.90
17619;DHT22;8928;51.678;6.074;2023-05-23T06:56:49;13.50;99.90
17619;DHT22;8928;51.678;6.074;2023-05-23T06:59:36;13.50;99.90
17619;DHT22;8928;51.678;6.074;2023-05-23T07:02:23;13.60;99.90
17619;DHT22;8928;51.678;6.074;2023-05-23T07:05:11;13.50;99.90
17619;DHT22;8928;51.678;6.074;2023-05-23T07:07:58;13.70;99.90
17619;DHT22;8928;51.678;6.074;2023-05-23T07:10:45;13.70;99.90
17619;DHT22;8928;51.678;6.074;2023-05-23T07:13:33;13.80;99.90
17619;DHT22;8928;51.678;6.074;2023-05-23T07:16:20;13.90;99.90
17619;DHT22;8928;51.678;6.074;2023-05-23T07:19:07;13.90;99.90
17619;DHT22;8928;51.678;6.074;2023-05-23T07:21:55;13.90;99.90
17619;DHT22;8928;51.678;6.074;2023-05-23T07:24:42;13.90;99.90
17619;DHT22;8928;51.678;6.074;2023-05-23T07:27:29;13.80;99.90
17619;DHT22;8928;51.678;6.074;2023-05-23T07:30:16;13.70;99.90
17619;DHT22;8928;51.678;6.074;2023-05-23T07:33:05;13.70;99.90
17619;DHT22;8928;51.678;6.074;2023-05-23T07:35:52;13.70;99.90
17619;DHT22;8928;51.678;6.074;2023-05-23T07:38:40;13.80;99.90
17619;DHT22;8928;51.678;6.074;2023-05-23T07:41:27;13.80;99.90
17619;DHT22;8928;51.678;6.074;2023-05-23T07:44:15;13.80;99.90
17619;DHT22;8928;51.678;6.074;2023-05-23T07:47:02;13.80;99.90
17619;DHT22;8928;51.678;6.074;2023-05-23T07:49:49;13.90;99.90
17619;DHT22;8928;51.678;6.074;2023-05-23T07:52:37;13.90;99.90
17619;DHT22;8928;51.678;6.074;2023-05-23T07:55:26;13.80;99.90
17619;DHT22;8928;51.678;6.074;2023-05-23T07:58:13;13.80;99.90
17619;DHT22;8928;51.678;6.074;2023-05-23T08:01:00;13.80;99.90
17619;DHT22;8928;51.678;6.074;2023-05-23T08:03:48;13.90;99.90
17619;DHT22;8928;51.678;6.074;2023-05-23T08:06:35;13.90;99.90
17619;DHT22;8928;51.678;6.074;2023-05-23T08:09:22;13.90;99.90
17619;DHT22;8928;51.678;6.074;2023-05-23T08:12:11;14.00;99.90
17619;DHT22;8928;51.678;6.074;2023-05-23T08:14:58;14.20;99.90
17619;DHT22;8928;51.678;6.074;2023-05-23T08:17:45;14.20;99.90
17619;DHT22;8928;51.678;6.074;2023-05-23T08:20:32;14.70;99.90
17619;DHT22;8928;51.678;6.074;2023-05-23T08:23:19;15.30;99.90
17619;DHT22;8928;51.678;6.074;2023-05-23T08:26:06;15.60;99.90
17619;DHT22;8928;51.678;6.074;2023-05-23T08:28:54;15.80;99.90
17619;DHT22;8928;51.678;6.074;2023-05-23T08:31:41;15.60;99.90
17619;DHT22;8928;51.678;6.074;2023-05-23T08:34:28;15.70;99.90
17619;DHT22;8928;51.678;6.074;2023-05-23T08:37:16;15.70;99.90
17619;DHT22;8928;51.678;6.074;2023-05-23T08:40:05;15.70;99.90
17619;DHT22;8928;51.678;6.074;2023-05-23T08:42:53;15.90;99.90
17619;DHT22;8928;51.678;6.074;2023-05-23T08:45:41;16.00;99.90
17619;DHT22;8928;51.678;6.074;2023-05-23T08:48:30;16.20;99.90
17619;DHT22;8928;51.678;6.074;2023-05-23T08:51:18;16.20;99.90
17619;DHT22;8928;51.678;6.074;2023-05-23T08:54:07;16.20;99.90
17619;DHT22;8928;51.678;6.074;2023-05-23T08:56:58;16.40;99.90
17619;DHT22;8928;51.678;6.074;2023-05-23T08:59:46;17.00;99.90
17619;DHT22;8928;51.678;6.074;2023-05-23T09:02:34;17.50;99.90
17619;DHT22;8928;51.678;6.074;2023-05-23T09:05:21;17.70;99.90
17619;DHT22;8928;51.678;6.074;2023-05-23T09:08:08;17.30;99.90
17619;DHT22;8928;51.678;6.074;2023-05-23T09:10:56;17.00;99.90
17619;DHT22;8928;51.678;6.074;2023-05-23T09:13:43;16.90;99.90
17619;DHT22;8928;51.678;6.074;2023-05-23T09:16:31;17.00;99.90
17619;DHT22;8928;51.678;6.074;2023-05-23T09:19:20;17.40;99.90
17619;DHT22;8928;51.678;6.074;2023-05-23T09:22:07;17.80;99.90
17619;DHT22;8928;51.678;6.074;2023-05-23T09:24:55;17.50;99.90
17619;DHT22;8928;51.678;6.074;2023-05-23T09:27:43;17.60;99.90
17619;DHT22;8928;51.678;6.074;2023-05-23T09:30:33;17.70;99.90
17619;DHT22;8928;51.678;6.074;2023-05-23T09:33:20;17.20;99.90
17619;DHT22;8928;51.678;6.074;2023-05-23T09:36:08;16.80;99.90
17619;DHT22;8928;51.678;6.074;2023-05-23T09:38:56;17.00;99.90
17619;DHT22;8928;51.678;6.074;2023-05-23T09:41:43;17.70;99.90
17619;DHT22;8928;51.678;6.074;2023-05-23T09:44:40;18.70;99.90
17619;DHT22;8928;51.678;6.074;2023-05-23T09:47:27;18.80;99.90
17619;DHT22;8928;51.678;6.074;2023-05-23T09:50:14;18.70;99.90
17619;DHT22;8928;51.678;6.074;2023-05-23T09:53:03;19.10;99.90
17619;DHT22;8928;51.678;6.074;2023-05-23T09:55:50;19.00;99.90
17619;DHT22;8928;51.678;6.074;2023-05-23T09:58:37;19.10;99.90
17619;DHT22;8928;51.678;6.074;2023-05-23T10:01:25;19.00;99.90
17619;DHT22;8928;51.678;6.074;2023-05-23T10:04:13;18.50;99.90
17619;DHT22;8928;51.678;6.074;2023-05-23T10:07:09;18.10;99.90
17619;DHT22;8928;51.678;6.074;2023-05-23T10:10:03;17.90;99.90
17619;DHT22;8928;51.678;6.074;2023-05-23T10:12:55;17.90;99.90
17619;DHT22;8928;51.678;6.074;2023-05-23T10:15:43;18.10;99.90
17619;DHT22;8928;51.678;6.074;2023-05-23T10:18:36;18.50;99.90
17619;DHT22;8928;51.678;6.074;2023-05-23T10:21:29;18.30;99.90
17619;DHT22;8928;51.678;6.074;2023-05-23T10:24:19;18.60;99.90
17619;DHT22;8928;51.678;6.074;2023-05-23T10:27:09;18.20;99.90
17619;DHT22;8928;51.678;6.074;2023-05-23T10:29:57;17.70;99.90
17619;DHT22;8928;51.678;6.074;2023-05-23T10:32:44;17.90;99.90
17619;DHT22;8928;51.678;6.074;2023-05-23T10:35:40;18.00;99.90
17619;DHT22;8928;51.678;6.074;2023-05-23T10:38:35;17.80;99.90
17619;DHT22;8928;51.678;6.074;2023-05-23T10:41:27;17.60;99.90
17619;DHT22;8928;51.678;6.074;2023-05-23T10:44:24;17.40;99.90
17619;DHT22;8928;51.678;6.074;2023-05-23T10:47:12;18.20;99.90
17619;DHT22;8928;51.678;6.074;2023-05-23T10:50:15;19.40;99.90
17619;DHT22;8928;51.678;6.074;2023-05-23T10:53:03;19.70;99.90
17619;DHT22;8928;51.678;6.074;2023-05-23T10:55:51;19.90;99.90
17619;DHT22;8928;51.678;6.074;2023-05-23T10:58:38;20.00;99.90
17619;DHT22;8928;51.678;6.074;2023-05-23T11:01:26;20.30;99.90
17619;DHT22;8928;51.678;6.074;2023-05-23T11:04:14;21.00;99.90
17619;DHT22;8928;51.678;6.074;2023-05-23T11:07:01;20.50;99.90
17619;DHT22;8928;51.678;6.074;2023-05-23T11:10:02;20.40;99.90
17619;DHT22;8928;51.678;6.074;2023-05-23T11:13:05;20.90;99.90
17619;DHT22;8928;51.678;6.074;2023-05-23T11:15:52;21.70;99.90
17619;DHT22;8928;51.678;6.074;2023-05-23T11:18:40;21.70;99.90
17619;DHT22;8928;51.678;6.074;2023-05-23T11:21:30;22.00;99.90
17619;DHT22;8928;51.678;6.074;2023-05-23T11:24:17;21.20;99.90
17619;DHT22;8928;51.678;6.074;2023-05-23T11:27:11;21.50;99.90
17619;DHT22;8928;51.678;6.074;2023-05-23T11:30:00;21.90;99.90
17619;DHT22;8928;51.678;6.074;2023-05-23T11:32:50;22.30;99.90
17619;DHT22;8928;51.678;6.074;2023-05-23T11:35:39;22.40;99.90
17619;DHT22;8928;51.678;6.074;2023-05-23T11:38:26;22.70;99.90
17619;DHT22;8928;51.678;6.074;2023-05-23T11:41:14;22.10;99.90
17619;DHT22;8928;51.678;6.074;2023-05-23T11:44:09;21.80;99.90
17619;DHT22;8928;51.678;6.074;2023-05-23T11:47:00;22.70;99.90
17619;DHT22;8928;51.678;6.074;2023-05-23T11:49:47;23.40;99.90
17619;DHT22;8928;51.678;6.074;2023-05-23T11:52:36;23.10;99.90
17619;DHT22;8928;51.678;6.074;2023-05-23T11:55:23;23.20;99.90
17619;DHT22;8928;51.678;6.074;2023-05-23T11:58:10;23.00;99.90
17619;DHT22;8928;51.678;6.074;2023-05-23T12:01:00;23.20;99.90
17619;DHT22;8928;51.678;6.074;2023-05-23T12:03:48;23.70;99.90
17619;DHT22;8928;51.678;6.074;2023-05-23T12:06:38;24.10;99.90
17619;DHT22;8928;51.678;6.074;2023-05-23T12:09:26;23.90;99.90
17619;DHT22;8928;51.678;6.074;2023-05-23T12:12:13;22.90;99.90
17619;DHT22;8928;51.678;6.074;2023-05-23T12:15:01;23.20;99.90
17619;DHT22;8928;51.678;6.074;2023-05-23T12:17:49;23.50;99.90
17619;DHT22;8928;51.678;6.074;2023-05-23T12:20:40;23.70;99.90
17619;DHT22;8928;51.678;6.074;2023-05-23T12:23:27;24.00;99.90
17619;DHT22;8928;51.678;6.074;2023-05-23T12:26:16;24.10;99.90
17619;DHT22;8928;51.678;6.074;2023-05-23T12:29:03;23.30;99.90
17619;DHT22;8928;51.678;6.074;2023-05-23T12:31:51;22.80;99.90
17619;DHT22;8928;51.678;6.074;2023-05-23T12:34:40;21.60;99.90
17619;DHT22;8928;51.678;6.074;2023-05-23T12:37:28;21.40;99.90
17619;DHT22;8928;51.678;6.074;2023-05-23T12:40:16;21.90;99.90
17619;DHT22;8928;51.678;6.074;2023-05-23T12:43:08;21.50;99.90
17619;DHT22;8928;51.678;6.074;2023-05-23T12:45:55;21.20;99.90
17619;DHT22;8928;51.678;6.074;2023-05-23T12:48:42;21.30;99.90
17619;DHT22;8928;51.678;6.074;2023-05-23T12:51:29;21.30;99.90
17619;DHT22;8928;51.678;6.074;2023-05-23T12:54:17;21.30;99.90
17619;DHT22;8928;51.678;6.074;2023-05-23T12:57:04;20.70;99.90
17619;DHT22;8928;51.678;6.074;2023-05-23T12:59:52;20.40;99.90
17619;DHT22;8928;51.678;6.074;2023-05-23T13:02:39;20.30;99.90
17619;DHT22;8928;51.678;6.074;2023-05-23T13:05:26;21.10;99.90
17619;DHT22;8928;51.678;6.074;2023-05-23T13:08:13;21.40;99.90
17619;DHT22;8928;51.678;6.074;2023-05-23T13:11:01;20.50;99.90
17619;DHT22;8928;51.678;6.074;2023-05-23T13:13:48;19.80;99.90
17619;DHT22;8928;51.678;6.074;2023-05-23T13:16:37;20.00;99.90
17619;DHT22;8928;51.678;6.074;2023-05-23T13:19:24;20.70;99.90
17619;DHT22;8928;51.678;6.074;2023-05-23T13:22:11;21.80;99.90
17619;DHT22;8928;51.678;6.074;2023-05-23T13:24:58;22.80;99.90
17619;DHT22;8928;51.678;6.074;2023-05-23T13:27:45;24.00;99.90
17619;DHT22;8928;51.678;6.074;2023-05-23T13:30:33;22.80;99.90
17619;DHT22;8928;51.678;6.074;2023-05-23T13:33:21;21.10;99.90
17619;DHT22;8928;51.678;6.074;2023-05-23T13:36:08;20.10;99.90
17619;DHT22;8928;51.678;6.074;2023-05-23T13:38:55;19.90;99.90
17619;DHT22;8928;51.678;6.074;2023-05-23T13:41:42;20.00;99.90
17619;DHT22;8928;51.678;6.074;2023-05-23T13:44:29;21.20;99.90
17619;DHT22;8928;51.678;6.074;2023-05-23T13:47:16;22.30;99.90
17619;DHT22;8928;51.678;6.074;2023-05-23T13:50:06;21.60;99.90
17619;DHT22;8928;51.678;6.074;2023-05-23T13:52:54;20.40;99.90
17619;DHT22;8928;51.678;6.074;2023-05-23T13:55:41;19.90;99.90
17619;DHT22;8928;51.678;6.074;2023-05-23T13:58:29;19.80;99.90
17619;DHT22;8928;51.678;6.074;2023-05-23T14:01:16;19.80;99.90
17619;DHT22;8928;51.678;6.074;2023-05-23T14:04:03;20.20;99.90
17619;DHT22;8928;51.678;6.074;2023-05-23T14:06:52;20.90;99.90
17619;DHT22;8928;51.678;6.074;2023-05-23T14:09:39;20.80;99.90
17619;DHT22;8928;51.678;6.074;2023-05-23T14:12:26;20.10;99.90
17619;DHT22;8928;51.678;6.074;2023-05-23T14:15:14;19.30;99.90
17619;DHT22;8928;51.678;6.074;2023-05-23T14:18:01;18.90;99.90
17619;DHT22;8928;51.678;6.074;2023-05-23T14:20:48;18.90;99.90
17619;DHT22;8928;51.678;6.074;2023-05-23T14:23:37;19.10;99.90
17619;DHT22;8928;51.678;6.074;2023-05-23T14:26:24;19.40;99.90
17619;DHT22;8928;51.678;6.074;2023-05-23T14:29:11;19.80;99.90
17619;DHT22;8928;51.678;6.074;2023-05-23T14:31:58;19.40;99.90
17619;DHT22;8928;51.678;6.074;2023-05-23T14:34:47;19.30;99.90
17619;DHT22;8928;51.678;6.074;2023-05-23T14:37:34;19.10;99.90
17619;DHT22;8928;51.678;6.074;2023-05-23T14:40:22;20.80;99.90
17619;DHT22;8928;51.678;6.074;2023-05-23T14:43:10;22.50;99.90
17619;DHT22;8928;51.678;6.074;2023-05-23T14:45:58;23.20;99.90
17619;DHT22;8928;51.678;6.074;2023-05-23T14:48:45;23.90;99.90
17619;DHT22;8928;51.678;6.074;2023-05-23T14:51:32;23.60;99.90
17619;DHT22;8928;51.678;6.074;2023-05-23T14:54:19;24.30;99.90
17619;DHT22;8928;51.678;6.074;2023-05-23T14:57:07;24.80;99.90
17619;DHT22;8928;51.678;6.074;2023-05-23T14:59:55;25.70;98.50
17619;DHT22;8928;51.678;6.074;2023-05-23T15:02:42;26.70;96.30
17619;DHT22;8928;51.678;6.074;2023-05-23T15:05:29;26.60;92.50
17619;DHT22;8928;51.678;6.074;2023-05-23T15:08:16;24.00;90.50
17619;DHT22;8928;51.678;6.074;2023-05-23T15:11:03;22.50;93.30
17619;DHT22;8928;51.678;6.074;2023-05-23T15:13:52;21.00;95.30
17619;DHT22;8928;51.678;6.074;2023-05-23T15:16:39;20.20;97.60
17619;DHT22;8928;51.678;6.074;2023-05-23T15:19:28;19.90;98.60
17619;DHT22;8928;51.678;6.074;2023-05-23T15:22:15;19.90;99.90
17619;DHT22;8928;51.678;6.074;2023-05-23T15:25:03;20.40;99.90
17619;DHT22;8928;51.678;6.074;2023-05-23T15:27:50;20.80;99.70
17619;DHT22;8928;51.678;6.074;2023-05-23T15:30:39;20.40;98.50
17619;DHT22;8928;51.678;6.074;2023-05-23T15:33:26;20.00;98.60
17619;DHT22;8928;51.678;6.074;2023-05-23T15:36:13;19.60;99.30
17619;DHT22;8928;51.678;6.074;2023-05-23T15:39:00;20.10;99.90
17619;DHT22;8928;51.678;6.074;2023-05-23T15:41:48;20.20;99.90
17619;DHT22;8928;51.678;6.074;2023-05-23T15:44:35;20.50;99.90
17619;DHT22;8928;51.678;6.074;2023-05-23T15:47:23;21.70;99.70
17619;DHT22;8928;51.678;6.074;2023-05-23T15:50:10;21.00;99.50
17619;DHT22;8928;51.678;6.074;2023-05-23T15:52:58;20.00;99.90
17619;DHT22;8928;51.678;6.074;2023-05-23T15:55:45;20.10;99.90
17619;DHT22;8928;51.678;6.074;2023-05-23T15:58:32;22.10;99.90
17619;DHT22;8928;51.678;6.074;2023-05-23T16:01:19;22.60;98.70
17619;DHT22;8928;51.678;6.074;2023-05-23T16:04:07;21.30;98.60
17619;DHT22;8928;51.678;6.074;2023-05-23T16:06:54;20.40;98.50
17619;DHT22;8928;51.678;6.074;2023-05-23T16:09:41;19.70;97.80
17619;DHT22;8928;51.678;6.074;2023-05-23T16:12:28;19.50;99.90
17619;DHT22;8928;51.678;6.074;2023-05-23T16:15:16;20.60;99.90
17619;DHT22;8928;51.678;6.074;2023-05-23T16:18:03;20.60;98.90
17619;DHT22;8928;51.678;6.074;2023-05-23T16:20:52;20.00;98.50
17619;DHT22;8928;51.678;6.074;2023-05-23T16:23:39;19.70;99.40
17619;DHT22;8928;51.678;6.074;2023-05-23T16:26:26;18.90;99.70
17619;DHT22;8928;51.678;6.074;2023-05-23T16:29:13;18.50;99.90
17619;DHT22;8928;51.678;6.074;2023-05-23T16:32:00;18.90;99.90
17619;DHT22;8928;51.678;6.074;2023-05-23T16:34:47;20.90;99.90
17619;DHT22;8928;51.678;6.074;2023-05-23T16:37:35;22.60;99.10
17619;DHT22;8928;51.678;6.074;2023-05-23T16:40:22;22.20;97.10
17619;DHT22;8928;51.678;6.074;2023-05-23T16:43:11;20.80;96.70
17619;DHT22;8928;51.678;6.074;2023-05-23T16:45:58;19.80;98.20
17619;DHT22;8928;51.678;6.074;2023-05-23T16:48:45;19.10;99.60
17619;DHT22;8928;51.678;6.074;2023-05-23T16:51:32;18.80;99.90
17619;DHT22;8928;51.678;6.074;2023-05-23T16:54:20;20.10;99.90
17619;DHT22;8928;51.678;6.074;2023-05-23T16:57:07;20.20;98.80
17619;DHT22;8928;51.678;6.074;2023-05-23T16:59:54;19.10;98.80
17619;DHT22;8928;51.678;6.074;2023-05-23T17:02:41;18.10;99.90
17619;DHT22;8928;51.678;6.074;2023-05-23T17:05:28;17.50;99.90
17619;DHT22;8928;51.678;6.074;2023-05-23T17:08:15;17.70;99.90
17619;DHT22;8928;51.678;6.074;2023-05-23T17:11:04;17.60;99.90
17619;DHT22;8928;51.678;6.074;2023-05-23T17:13:51;18.50;99.90
17619;DHT22;8928;51.678;6.074;2023-05-23T17:16:38;19.90;99.90
17619;DHT22;8928;51.678;6.074;2023-05-23T17:19:25;20.60;99.30
17619;DHT22;8928;51.678;6.074;2023-05-23T17:22:12;21.20;97.70
17619;DHT22;8928;51.678;6.074;2023-05-23T17:24:59;21.40;97.20
17619;DHT22;8928;51.678;6.074;2023-05-23T17:27:48;21.70;97.10
17619;DHT22;8928;51.678;6.074;2023-05-23T17:30:35;22.50;96.50
17619;DHT22;8928;51.678;6.074;2023-05-23T17:33:22;22.70;96.50
17619;DHT22;8928;51.678;6.074;2023-05-23T17:36:09;22.60;94.60
17619;DHT22;8928;51.678;6.074;2023-05-23T17:38:56;22.40;93.50
17619;DHT22;8928;51.678;6.074;2023-05-23T17:41:43;22.40;93.80
17619;DHT22;8928;51.678;6.074;2023-05-23T17:44:32;22.50;92.80
17619;DHT22;8928;51.678;6.074;2023-05-23T17:47:19;22.40;92.30
17619;DHT22;8928;51.678;6.074;2023-05-23T17:50:07;22.30;90.70
17619;DHT22;8928;51.678;6.074;2023-05-23T17:52:55;22.00;91.10
17619;DHT22;8928;51.678;6.074;2023-05-23T17:55:42;21.80;92.30
17619;DHT22;8928;51.678;6.074;2023-05-23T17:58:29;21.90;92.60
17619;DHT22;8928;51.678;6.074;2023-05-23T18:01:18;22.20;92.20